PWSweather.com
Personal Weather Stations
Station Observations
INORDPAS37
Bondues, BonduesFR 59910

BonduesBonduesFR 59910

Lat: 50.7, Lon: 3.09

Elevation: 102

Station Type: Netatmo

http://bondues.meteoamikuze.com

Latest ConditionsUpdated 1:22:00 PM GMT+01:01 Monday, Jun 24, 2019
Currently Today's Max Today's Min Today's Average
Temperature 87.8°F31.0°C 88.0°F31.1°C 69.1°F20.6°C 76.7°F24.8°C
Dew Point 67.1°F19.5°C 68.0°F20.0°C 54.3°F12.4°C 60.3°F15.7°C
Winds 2.5 mph SW4.0 kmh SW 3.1 mph -5.0 kmh - - 2.0 mph 3.2 kmh
Wind Gusts 7.4 mph11.9 kmh 7.4 mph11.9 kmh - -
Humidity 53% 65% 53% 61%
Pressure 30.02 in1016.6 mb 30.03 in1016.9 mb 29.98 in1015.2 mb -
Hour Temp Dew Point Humidity Winds Wind Gusts Pressure Precip Precip Rate Daily Precip Total
01:22 PM 87.8°F31.0°C 67.1°F19.5°C 53% 2.5 mph SW4.0 kmh SW 7.4 mph11.9 kmh 30.02 in1016.6 mb 0.00 in0.0 mm 0.00 in0.0 mm 0.00 in0.0 mm
01:02 PM 87.8°F31.0°C 67.1°F19.5°C 53% 2.5 mph SW4.0 kmh SW 5.6 mph9.0 kmh 30.02 in1016.6 mb 0.00 in0.0 mm 0.00 in0.0 mm 0.00 in0.0 mm
12:41 PM 88.0°F31.1°C 67.8°F19.9°C 54% 1.8 mph SSW2.9 kmh SSW 5.6 mph9.0 kmh 30.02 in1016.6 mb 0.00 in0.0 mm 0.00 in0.0 mm 0.00 in0.0 mm
12:22 PM 87.6°F30.9°C 67.5°F19.7°C 54% 2.5 mph SW4.0 kmh SW 5.6 mph9.0 kmh 30.03 in1016.9 mb 0.00 in0.0 mm 0.00 in0.0 mm 0.00 in0.0 mm
12:02 PM 87.4°F30.8°C 67.3°F19.6°C 54% 3.1 mph S5.0 kmh S 5.6 mph9.0 kmh 30.01 in1016.3 mb 0.00 in0.0 mm 0.00 in0.0 mm 0.00 in0.0 mm
11:42 AM 87.4°F30.8°C 67.6°F19.8°C 55% 3.1 mph S5.0 kmh S 5.6 mph9.0 kmh 30.01 in1016.3 mb 0.00 in0.0 mm 0.00 in0.0 mm 0.00 in0.0 mm
11:22 AM 86.7°F30.4°C 68.0°F20.0°C 57% 2.5 mph SSE4.0 kmh SSE 5.6 mph9.0 kmh 30.01 in1016.3 mb 0.00 in0.0 mm 0.00 in0.0 mm 0.00 in0.0 mm
11:02 AM 85.6°F29.8°C 66.9°F19.4°C 57% 2.5 mph SSE4.0 kmh SSE 6.9 mph11.1 kmh 30.01 in1016.3 mb 0.00 in0.0 mm 0.00 in0.0 mm 0.00 in0.0 mm
10:42 AM 85.3°F29.6°C 67.1°F19.5°C 58% 1.8 mph SSE2.9 kmh SSE 5.6 mph9.0 kmh 30.01 in1016.3 mb 0.00 in0.0 mm 0.00 in0.0 mm 0.00 in0.0 mm
10:21 AM 84.4°F29.1°C 66.6°F19.2°C 59% 2.5 mph S4.0 kmh S 6.9 mph11.1 kmh 30.01 in1016.3 mb 0.00 in0.0 mm 0.00 in0.0 mm 0.00 in0.0 mm
10:01 AM 83.1°F28.4°C 65.8°F18.8°C 60% 3.1 mph SW5.0 kmh SW 5.6 mph9.0 kmh 30.01 in1016.3 mb 0.00 in0.0 mm 0.00 in0.0 mm 0.00 in0.0 mm
09:41 AM 82.2°F27.9°C 65.5°F18.6°C 61% 1.8 mph SSE2.9 kmh SSE 3.8 mph6.1 kmh 30.01 in1016.3 mb 0.00 in0.0 mm 0.00 in0.0 mm 0.00 in0.0 mm
09:21 AM 81.5°F27.5°C 65.3°F18.5°C 62% 2.5 mph S4.0 kmh S 4.9 mph7.9 kmh 30.00 in1015.9 mb 0.00 in0.0 mm 0.00 in0.0 mm 0.00 in0.0 mm
09:01 AM 79.0°F26.1°C 63.0°F17.2°C 62% 2.5 mph S4.0 kmh S 3.8 mph6.1 kmh 30.01 in1016.3 mb 0.00 in0.0 mm 0.00 in0.0 mm 0.00 in0.0 mm
08:41 AM 77.4°F25.2°C 61.7°F16.5°C 63% 1.8 mph SSE2.9 kmh SSE 4.9 mph7.9 kmh 30.01 in1016.3 mb 0.00 in0.0 mm 0.00 in0.0 mm 0.00 in0.0 mm
08:21 AM 76.5°F24.7°C 61.0°F16.1°C 63% 1.8 mph SSE2.9 kmh SSE 4.9 mph7.9 kmh 30.00 in1015.9 mb 0.00 in0.0 mm 0.00 in0.0 mm 0.00 in0.0 mm
08:01 AM 75.6°F24.2°C 60.1°F15.6°C 63% 2.5 mph SSE4.0 kmh SSE 5.6 mph9.0 kmh 30.00 in1015.9 mb 0.00 in0.0 mm 0.00 in0.0 mm 0.00 in0.0 mm
07:40 AM 74.8°F23.8°C 59.4°F15.2°C 63% 2.5 mph SSE4.0 kmh SSE 5.6 mph9.0 kmh 30.00 in1015.9 mb 0.00 in0.0 mm 0.00 in0.0 mm 0.00 in0.0 mm
07:21 AM 74.1°F23.4°C 59.2°F15.1°C 64% 1.8 mph SSE2.9 kmh SSE 4.9 mph7.9 kmh 29.99 in1015.6 mb 0.00 in0.0 mm 0.00 in0.0 mm 0.00 in0.0 mm
07:00 AM 72.7°F22.6°C 58.3°F14.6°C 65% 1.8 mph SE2.9 kmh SE 4.9 mph7.9 kmh 29.99 in1015.6 mb 0.00 in0.0 mm 0.00 in0.0 mm 0.00 in0.0 mm
06:41 AM 71.2°F21.8°C 56.8°F13.8°C 65% 1.8 mph SE2.9 kmh SE 5.6 mph9.0 kmh 29.99 in1015.6 mb 0.00 in0.0 mm 0.00 in0.0 mm 0.00 in0.0 mm
06:20 AM 70.0°F21.1°C 55.6°F13.1°C 65% 1.8 mph SE2.9 kmh SE 3.8 mph6.1 kmh 29.99 in1015.6 mb 0.00 in0.0 mm 0.00 in0.0 mm 0.00 in0.0 mm
06:00 AM 69.6°F20.9°C 55.2°F12.9°C 65% 1.3 mph SE2.1 kmh SE 3.8 mph6.1 kmh 29.99 in1015.6 mb 0.00 in0.0 mm 0.00 in0.0 mm 0.00 in0.0 mm
05:40 AM 69.1°F20.6°C 54.9°F12.7°C 65% 1.8 mph SE2.9 kmh SE 3.8 mph6.1 kmh 29.99 in1015.6 mb 0.00 in0.0 mm 0.00 in0.0 mm 0.00 in0.0 mm
05:19 AM 69.1°F20.6°C 54.3°F12.4°C 64% 1.8 mph SE2.9 kmh SE 3.8 mph6.1 kmh 29.98 in1015.2 mb 0.00 in0.0 mm 0.00 in0.0 mm 0.00 in0.0 mm
05:00 AM 69.3°F20.7°C 54.5°F12.5°C 64% 1.8 mph SE2.9 kmh SE 3.8 mph6.1 kmh 29.99 in1015.6 mb 0.00 in0.0 mm 0.00 in0.0 mm 0.00 in0.0 mm
04:39 AM 69.6°F20.9°C 54.5°F12.5°C 63% 1.8 mph SE2.9 kmh SE 5.6 mph9.0 kmh 29.98 in1015.2 mb 0.00 in0.0 mm 0.00 in0.0 mm 0.00 in0.0 mm
04:20 AM 70.0°F21.1°C 54.9°F12.7°C 63% 1.8 mph SE2.9 kmh SE 4.3 mph6.9 kmh 29.98 in1015.2 mb 0.00 in0.0 mm 0.00 in0.0 mm 0.00 in0.0 mm
03:59 AM 70.5°F21.4°C 55.2°F12.9°C 63% 1.8 mph SE2.9 kmh SE 4.3 mph6.9 kmh 29.99 in1015.6 mb 0.00 in0.0 mm 0.00 in0.0 mm 0.00 in0.0 mm
03:39 AM 70.9°F21.6°C 55.6°F13.1°C 63% 1.8 mph SE2.9 kmh SE 4.3 mph6.9 kmh 29.98 in1015.2 mb 0.00 in0.0 mm 0.00 in0.0 mm 0.00 in0.0 mm
03:29 AM 71.2°F21.8°C 55.9°F13.3°C 63% 1.8 mph SE2.9 kmh SE 4.3 mph6.9 kmh 29.98 in1015.2 mb 0.00 in0.0 mm 0.00 in0.0 mm 0.00 in0.0 mm
02:59 AM 71.6°F22.0°C 56.3°F13.5°C 63% 1.8 mph SE2.9 kmh SE 4.9 mph7.9 kmh 29.98 in1015.2 mb 0.00 in0.0 mm 0.00 in0.0 mm 0.00 in0.0 mm
02:49 AM 71.6°F22.0°C 56.3°F13.5°C 63% 1.3 mph SE2.1 kmh SE 3.1 mph5.0 kmh 29.98 in1015.2 mb 0.00 in0.0 mm 0.00 in0.0 mm 0.00 in0.0 mm
02:29 AM 71.8°F22.1°C 56.5°F13.6°C 63% 1.8 mph SE2.9 kmh SE 4.3 mph6.9 kmh 29.98 in1015.2 mb 0.00 in0.0 mm 0.00 in0.0 mm 0.00 in0.0 mm
02:09 AM 72.0°F22.2°C 56.3°F13.5°C 62% 1.3 mph SE2.1 kmh SE 3.1 mph5.0 kmh 30.00 in1015.9 mb 0.00 in0.0 mm 0.00 in0.0 mm 0.00 in0.0 mm
01:48 AM 72.5°F22.5°C 56.7°F13.7°C 62% 1.3 mph SE2.1 kmh SE 3.1 mph5.0 kmh 30.00 in1015.9 mb 0.00 in0.0 mm 0.00 in0.0 mm 0.00 in0.0 mm
01:29 AM 73.0°F22.8°C 57.2°F14.0°C 62% 1.3 mph SE2.1 kmh SE 3.8 mph6.1 kmh 30.00 in1015.9 mb 0.00 in0.0 mm 0.00 in0.0 mm 0.00 in0.0 mm
01:08 AM 73.4°F23.0°C 57.6°F14.2°C 62% 1.3 mph SE2.1 kmh SE 3.1 mph5.0 kmh 30.00 in1015.9 mb 0.00 in0.0 mm 0.00 in0.0 mm 0.00 in0.0 mm
12:49 AM 73.6°F23.1°C 57.7°F14.3°C 62% 1.3 mph SE2.1 kmh SE 3.8 mph6.1 kmh 30.00 in1015.9 mb 0.00 in0.0 mm 0.00 in0.0 mm 0.00 in0.0 mm
12:28 AM 74.1°F23.4°C 57.9°F14.4°C 61% 1.3 mph SE2.1 kmh SE 3.1 mph5.0 kmh 30.00 in1015.9 mb 0.00 in0.0 mm 0.00 in0.0 mm 0.00 in0.0 mm
12:08 AM 74.7°F23.7°C 58.3°F14.6°C 61% 1.3 mph SE2.1 kmh SE 3.8 mph6.1 kmh 30.00 in1015.9 mb 0.00 in0.0 mm 0.00 in0.0 mm 0.00 in0.0 mm